Time;durP1;ratioP1;P1;durP2;ratioP2;P2;SDS_P1;SDS_P2;PMS_P1;PMS_P2;Temp;Humidity;BMP_temperature;BMP_pressure;BME280_temperature;BME280_humidity;BME280_pressure;Samples;Min_cycle;Max_cycle;Signal;HPM_P1;HPM_P2
2019/07/26 00:03:05;;;;;;;10.4;9.3;;;;;;;23.68;64.14063;936.9053;;;;
2019/07/26 00:06:23;;;;;;;13.4;9.9;;;;;;;23.73;63.95898;936.8334;;;;
2019/07/26 00:09:40;;;;;;;12.4;9.6;;;;;;;23.75;63.92773;936.89;;;;
2019/07/26 00:12:59;;;;;;;11.4;9.5;;;;;;;23.39;65.43945;936.8347;;;;
2019/07/26 00:16:16;;;;;;;10.5;9.4;;;;;;;23.56;64.92285;936.7891;;;;
2019/07/26 00:19:33;;;;;;;12.2;9.4;;;;;;;23.57;65.08984;936.813;;;;
2019/07/26 00:22:51;;;;;;;10.6;9.4;;;;;;;23.35;65.46875;936.8325;;;;
2019/07/26 00:26:15;;;;;;;10.7;9.5;;;;;;;23.24;65.83984;936.7844;;;;
2019/07/26 00:29:35;;;;;;;11.6;9.8;;;;;;;23.21;65.73047;936.8265;;;;
2019/07/26 00:32:58;;;;;;;11.1;9.8;;;;;;;23.12;66.04492;936.7282;;;;
2019/07/26 00:36:16;;;;;;;10.9;9.7;;;;;;;23.24;65.67578;936.7975;;;;
2019/07/26 00:39:32;;;;;;;10.8;9.7;;;;;;;23.2;65.41211;936.7887;;;;
2019/07/26 00:42:50;;;;;;;11.4;9.3;;;;;;;22.7;67.11035;936.75;;;;
2019/07/26 00:46:05;;;;;;;10.6;9.5;;;;;;;22.76;67.31934;936.753;;;;
2019/07/26 00:49:20;;;;;;;13;10.1;;;;;;;22.78;67.51074;936.7676;;;;
2019/07/26 00:52:40;;;;;;;12.1;9.8;;;;;;;23.09;66.62793;936.8367;;;;
2019/07/26 00:55:58;;;;;;;15.7;10.6;;;;;;;22.93;67.28613;936.8328;;;;
2019/07/26 00:59:14;;;;;;;11;9.9;;;;;;;22.67;68.30371;936.8494;;;;
2019/07/26 01:02:36;;;;;;;13.6;9.8;;;;;;;22.55;68.42578;936.8448;;;;
2019/07/26 01:05:53;;;;;;;12.9;9.8;;;;;;;22.69;68.31738;936.8122;;;;
2019/07/26 01:09:11;;;;;;;10.6;9.5;;;;;;;22.74;67.5752;936.8602;;;;
2019/07/26 01:12:30;;;;;;;11;9.8;;;;;;;22.96;67.0918;936.7595;;;;
2019/07/26 01:15:49;;;;;;;10.6;9.5;;;;;;;22.69;68.0127;936.855;;;;
2019/07/26 01:19:07;;;;;;;12.2;9.5;;;;;;;22.61;68.3291;936.8839;;;;
2019/07/26 01:22:24;;;;;;;10.7;9.5;;;;;;;22.6;68.35254;936.9929;;;;
2019/07/26 01:25:41;;;;;;;10.5;9.4;;;;;;;22.66;68.1377;936.9973;;;;
2019/07/26 01:28:58;;;;;;;12;9.4;;;;;;;22.66;68.18457;936.8804;;;;
2019/07/26 01:32:18;;;;;;;12.1;9.4;;;;;;;22.46;68.99707;936.949;;;;
2019/07/26 01:35:38;;;;;;;10.4;9.4;;;;;;;22.42;68.80371;936.9672;;;;
2019/07/26 01:38:55;;;;;;;10.5;9.5;;;;;;;22.39;68.7998;936.8418;;;;
2019/07/26 01:42:31;;;;;;;10.8;9.7;;;;;;;22.55;68.30859;936.7449;;;;
2019/07/26 01:45:52;;;;;;;10;9;;;;;;;22.47;67.99121;936.709;;;;
2019/07/26 01:49:14;;;;;;;10.8;9.2;;;;;;;22.47;68.17871;936.7391;;;;
2019/07/26 01:52:31;;;;;;;10.3;9.2;;;;;;;22.38;68.31738;936.6522;;;;
2019/07/26 01:55:46;;;;;;;12.3;9.5;;;;;;;22.45;67.96484;936.6334;;;;
2019/07/26 01:59:05;;;;;;;10.4;9;;;;;;;22.32;68.13184;936.6311;;;;
2019/07/26 02:02:22;;;;;;;11.2;8.9;;;;;;;22.37;67.84668;936.6284;;;;
2019/07/26 02:05:43;;;;;;;11.3;9.1;;;;;;;22.53;67.31934;936.5625;;;;
2019/07/26 02:08:59;;;;;;;9.9;8.9;;;;;;;22.72;65.5752;936.4959;;;;
2019/07/26 02:12:21;;;;;;;12.1;9.2;;;;;;;22.74;66.30664;936.5355;;;;
2019/07/26 02:15:37;;;;;;;10.4;9.3;;;;;;;22.44;67.91504;936.5058;;;;
2019/07/26 02:18:54;;;;;;;10.4;9.3;;;;;;;22.14;69.3584;936.5703;;;;
2019/07/26 02:22:10;;;;;;;10.2;9.3;;;;;;;22.19;69.49609;936.5287;;;;
2019/07/26 02:25:26;;;;;;;13.6;12.3;;;;;;;22.11;69.625;936.5178;;;;
2019/07/26 02:28:46;;;;;;;11.4;10.2;;;;;;;22.23;69.60742;936.4496;;;;
2019/07/26 02:32:03;;;;;;;12.8;10.2;;;;;;;22.37;68.88965;936.4167;;;;
2019/07/26 02:35:20;;;;;;;10.7;9.6;;;;;;;22.38;68.83398;936.4146;;;;
2019/07/26 02:38:39;;;;;;;12.5;10.2;;;;;;;22.29;69.43066;936.3837;;;;
2019/07/26 02:41:56;;;;;;;10.7;9.6;;;;;;;22.31;69.31543;936.3596;;;;
2019/07/26 02:45:12;;;;;;;11;9.9;;;;;;;22.24;69.55176;936.3047;;;;
2019/07/26 02:48:30;;;;;;;11;9.5;;;;;;;22.09;70.27734;936.3354;;;;
2019/07/26 02:51:48;;;;;;;11;9.8;;;;;;;22.2;69.70898;936.2111;;;;
2019/07/26 02:55:03;;;;;;;10.6;9.6;;;;;;;22.19;69.65918;936.2133;;;;
2019/07/26 02:58:24;;;;;;;12.1;10.3;;;;;;;22.19;69.84766;936.2692;;;;
2019/07/26 03:01:45;;;;;;;11.1;9.8;;;;;;;22.09;70.125;936.3095;;;;
2019/07/26 03:05:14;;;;;;;11.5;10;;;;;;;22.27;69.8252;936.2793;;;;
2019/07/26 03:08:31;;;;;;;11.2;10.1;;;;;;;22.51;68.54785;936.2051;;;;
2019/07/26 03:11:51;;;;;;;13.5;9.9;;;;;;;22.41;68.89746;936.2582;;;;
2019/07/26 03:15:09;;;;;;;11;9.8;;;;;;;22.36;69.14648;936.288;;;;
2019/07/26 03:18:25;;;;;;;11;9.9;;;;;;;22.3;69.48926;936.3618;;;;
2019/07/26 03:21:39;;;;;;;13.1;10.2;;;;;;;22.35;69.4043;936.4189;;;;
2019/07/26 03:24:54;;;;;;;11;9.8;;;;;;;22.21;69.76855;936.4216;;;;
2019/07/26 03:28:11;;;;;;;10.8;9.7;;;;;;;22.49;68.95508;936.4213;;;;
2019/07/26 03:31:33;;;;;;;12;10.2;;;;;;;22.32;69.26953;936.3714;;;;
2019/07/26 03:34:49;;;;;;;15.8;10.4;;;;;;;22.21;69.78027;936.5034;;;;
2019/07/26 03:38:07;;;;;;;12.6;9.9;;;;;;;22.38;70.03027;936.4794;;;;
2019/07/26 03:41:24;;;;;;;11.3;10.2;;;;;;;22.49;69.48438;936.5031;;;;
2019/07/26 03:44:43;;;;;;;13.4;10.4;;;;;;;22.31;69.51465;936.5114;;;;
2019/07/26 03:47:57;;;;;;;13.1;10.2;;;;;;;22.4;69.1416;936.4902;;;;
2019/07/26 03:51:14;;;;;;;12.1;9.6;;;;;;;22.4;69.02441;936.3722;;;;
2019/07/26 03:54:33;;;;;;;11.3;10.1;;;;;;;22.51;68.1377;936.353;;;;
2019/07/26 03:57:52;;;;;;;14.2;10.2;;;;;;;22.78;68.50781;936.3741;;;;
2019/07/26 04:01:12;;;;;;;11.5;10.3;;;;;;;22.86;68.09766;936.3583;;;;
2019/07/26 04:04:31;;;;;;;13.4;9.8;;;;;;;22.85;68.16797;936.3723;;;;
2019/07/26 04:07:42;;;;;;;11;9.9;;;;;;;22.95;68.16992;936.4097;;;;
2019/07/26 04:10:58;;;;;;;10.6;9.5;;;;;;;23.03;68.25488;936.4456;;;;
2019/07/26 04:14:18;;;;;;;13;10.2;;;;;;;23.16;67.36914;936.3834;;;;
2019/07/26 04:17:34;;;;;;;13.1;10.2;;;;;;;23.24;67.07617;936.3114;;;;
2019/07/26 04:20:54;;;;;;;11.9;10;;;;;;;23.36;67.29297;936.3321;;;;
2019/07/26 04:24:12;;;;;;;14.2;9.9;;;;;;;23.4;67.35742;936.3524;;;;
2019/07/26 04:27:28;;;;;;;14.1;10;;;;;;;23.35;66.69141;936.3384;;;;
2019/07/26 04:30:52;;;;;;;11.6;9.5;;;;;;;23.3;67.30762;936.2892;;;;
2019/07/26 04:34:12;;;;;;;12.1;10.1;;;;;;;23.35;67.14941;936.2043;;;;
2019/07/26 04:37:33;;;;;;;15.3;10;;;;;;;23.54;66.06055;936.3582;;;;
2019/07/26 04:40:51;;;;;;;11.6;9.7;;;;;;;23.55;65.21484;936.348;;;;
2019/07/26 04:44:11;;;;;;;10.7;9.3;;;;;;;23.57;63.50195;936.2758;;;;
2019/07/26 04:47:27;;;;;;;14.2;8.5;;;;;;;23.6;62.68262;936.3233;;;;
2019/07/26 04:50:43;;;;;;;11.4;8.7;;;;;;;23.57;65.39551;936.3448;;;;
2019/07/26 04:54:06;;;;;;;17.9;9.9;;;;;;;23.76;64.9873;936.2955;;;;
2019/07/26 04:57:24;;;;;;;16;9.6;;;;;;;23.65;65.45508;936.4196;;;;
2019/07/26 05:00:38;;;;;;;14.5;10.1;;;;;;;23.8;62.74609;936.3456;;;;
2019/07/26 05:04:17;;;;;;;10.7;9.6;;;;;;;23.84;63.80957;936.3571;;;;
2019/07/26 05:07:33;;;;;;;11.6;9.5;;;;;;;23.76;65.27051;936.3594;;;;
2019/07/26 05:10:55;;;;;;;11.8;10.2;;;;;;;24.11;65.4043;936.3066;;;;
2019/07/26 05:14:17;;;;;;;12.4;9.5;;;;;;;24.32;63.56055;936.2847;;;;
2019/07/26 05:17:38;;;;;;;13;10;;;;;;;24.41;65.3418;936.3527;;;;
2019/07/26 05:20:54;;;;;;;13.7;9.9;;;;;;;24.35;62.45703;936.3803;;;;
2019/07/26 05:24:09;;;;;;;12.8;10.3;;;;;;;24.51;62.50391;936.3117;;;;
2019/07/26 05:27:26;;;;;;;13.8;10.3;;;;;;;24.73;61.55566;936.2477;;;;
2019/07/26 05:30:42;;;;;;;15.5;10.5;;;;;;;25;61.33398;936.298;;;;
2019/07/26 05:34:00;;;;;;;12.5;10.1;;;;;;;25.06;61.57813;936.2575;;;;
2019/07/26 05:37:21;;;;;;;13.5;11.1;;;;;;;25.92;59.9707;936.2149;;;;
2019/07/26 05:40:38;;;;;;;11.6;10.3;;;;;;;26.26;57.22363;936.2296;;;;
2019/07/26 05:43:56;;;;;;;13.9;9.2;;;;;;;26.29;57.52344;936.1945;;;;
2019/07/26 05:47:11;;;;;;;11.5;8.9;;;;;;;27.38;55.26563;936.2059;;;;
2019/07/26 05:50:32;;;;;;;11.2;8.8;;;;;;;27.03;54.07422;936.1365;;;;
2019/07/26 05:53:55;;;;;;;12.4;8.6;;;;;;;26.92;54.75879;936.0845;;;;
2019/07/26 05:57:15;;;;;;;11.1;8.7;;;;;;;27.58;53.97363;936.1627;;;;
2019/07/26 06:00:30;;;;;;;9.1;8.1;;;;;;;27.39;53.23926;936.0424;;;;
2019/07/26 06:02:59;;;;;;;9.6;8.3;;;;;;;27.75;53.33008;936.088;;;;
2019/07/26 06:06:14;;;;;;;10.7;8.1;;;;;;;27.12;54.16699;936.0824;;;;
2019/07/26 06:09:31;;;;;;;12.7;8.6;;;;;;;27.41;52.20996;936.0647;;;;
2019/07/26 06:12:47;;;;;;;9.6;8.5;;;;;;;27.43;52.55566;936.0311;;;;
2019/07/26 06:16:07;;;;;;;10.3;8.3;;;;;;;28.14;50.91504;936.0229;;;;
2019/07/26 06:19:21;;;;;;;12.2;8.3;;;;;;;28.17;50.21875;936.0295;;;;
2019/07/26 06:22:43;;;;;;;10.9;8.5;;;;;;;28.41;49.70898;935.995;;;;
2019/07/26 06:25:59;;;;;;;13.3;9.1;;;;;;;28.81;49.12207;936.0101;;;;
2019/07/26 06:29:16;;;;;;;14.1;8.9;;;;;;;29.86;46.2793;936.0123;;;;
2019/07/26 06:32:32;;;;;;;12.3;8.4;;;;;;;30.72;45.72168;935.9783;;;;
2019/07/26 06:35:52;;;;;;;11.8;8;;;;;;;31.61;43.17773;935.9579;;;;
2019/07/26 06:39:13;;;;;;;8.6;7.3;;;;;;;31.91;43.31445;935.9512;;;;
2019/07/26 06:42:27;;;;;;;8.4;7.4;;;;;;;31.84;41.54688;935.9244;;;;
2019/07/26 06:45:48;;;;;;;8.2;7.4;;;;;;;30.98;44.12207;935.9936;;;;
2019/07/26 06:49:07;;;;;;;10.5;7.9;;;;;;;30.72;45.91309;935.8823;;;;
2019/07/26 06:52:29;;;;;;;12.1;7.7;;;;;;;31.78;42.14063;935.9447;;;;
2019/07/26 06:55:48;;;;;;;8.1;7.3;;;;;;;31.08;43.57031;935.9087;;;;
2019/07/26 06:59:08;;;;;;;12.4;7.6;;;;;;;31.69;42.31152;935.8427;;;;
2019/07/26 07:02:26;;;;;;;10.7;7.6;;;;;;;31.4;43.26563;935.8784;;;;
2019/07/26 07:05:54;;;;;;;8.9;7.2;;;;;;;32.97;39.69336;935.8517;;;;
2019/07/26 07:09:10;;;;;;;9;7.2;;;;;;;31.64;42.8584;935.8511;;;;
2019/07/26 07:12:34;;;;;;;10.3;7.2;;;;;;;31.15;43.62598;935.742;;;;
2019/07/26 07:15:55;;;;;;;9.7;7.4;;;;;;;31.94;41.74805;935.7175;;;;
2019/07/26 07:19:21;;;;;;;9.6;7.6;;;;;;;32.52;40.49219;935.6722;;;;
2019/07/26 07:22:40;;;;;;;9.3;7;;;;;;;33.59;38.79688;935.6856;;;;
2019/07/26 07:25:59;;;;;;;9.8;7.4;;;;;;;32.99;40.85938;935.5834;;;;
2019/07/26 07:29:22;;;;;;;7.8;7;;;;;;;33.4;38.76855;935.6864;;;;
2019/07/26 07:32:44;;;;;;;8.2;7.3;;;;;;;32.01;41.31055;935.5953;;;;
2019/07/26 07:36:00;;;;;;;7.8;7;;;;;;;34.34;39.18652;935.5533;;;;
2019/07/26 07:39:19;;;;;;;8.2;7.2;;;;;;;34.81;35.86133;935.5417;;;;
2019/07/26 07:42:43;;;;;;;9.1;7.5;;;;;;;35.46;36.55273;935.5464;;;;
2019/07/26 07:46:00;;;;;;;7.6;6.8;;;;;;;35.91;34.55762;935.4734;;;;
2019/07/26 07:49:24;;;;;;;8.2;6.7;;;;;;;35.8;33.99414;935.468;;;;
2019/07/26 07:52:43;;;;;;;7.4;6.7;;;;;;;36.03;35.29297;935.4579;;;;
2019/07/26 07:56:02;;;;;;;8.6;6.6;;;;;;;36.22;33.65039;935.4272;;;;
2019/07/26 07:59:25;;;;;;;8.7;6.5;;;;;;;37.32;33.56152;935.4377;;;;
2019/07/26 08:02:45;;;;;;;7.2;6.2;;;;;;;37.93;30.35156;935.3901;;;;
2019/07/26 08:06:03;;;;;;;8.1;6.5;;;;;;;37.58;31.11719;935.3836;;;;
2019/07/26 08:09:21;;;;;;;7.9;6.1;;;;;;;38.71;30.73145;935.315;;;;
2019/07/26 08:12:37;;;;;;;7.3;6.1;;;;;;;39.12;31.95117;935.3867;;;;
2019/07/26 08:15:54;;;;;;;9.8;6.6;;;;;;;37.93;33.08398;935.2971;;;;
2019/07/26 08:19:13;;;;;;;7;5.6;;;;;;;38.77;30.56543;935.2885;;;;
2019/07/26 08:22:30;;;;;;;6.9;5.5;;;;;;;38.99;28.20703;935.2849;;;;
2019/07/26 08:25:45;;;;;;;8.8;6;;;;;;;38.94;30.625;935.2299;;;;
2019/07/26 08:29:05;;;;;;;6.2;5.4;;;;;;;39.28;26.67871;935.1389;;;;
2019/07/26 08:32:22;;;;;;;7.3;6;;;;;;;39.41;29.18262;935.1717;;;;
2019/07/26 08:35:36;;;;;;;8.1;6.3;;;;;;;38.83;33.12402;935.1994;;;;
2019/07/26 08:38:54;;;;;;;7.8;6.2;;;;;;;39.4;28.76758;935.1617;;;;
2019/07/26 08:42:14;;;;;;;9;5.9;;;;;;;39.34;28.22852;935.1067;;;;
2019/07/26 08:45:35;;;;;;;7.8;5.7;;;;;;;40.32;28.3623;935.0803;;;;
2019/07/26 08:48:52;;;;;;;7.6;6;;;;;;;39.15;32.34277;935.0697;;;;
2019/07/26 08:52:11;;;;;;;11.4;5.6;;;;;;;39.68;28.77344;934.9979;;;;
2019/07/26 08:55:27;;;;;;;10.4;6.1;;;;;;;39.13;29.96875;934.9758;;;;
2019/07/26 08:58:46;;;;;;;9.3;5.8;;;;;;;39.66;27.98047;934.9802;;;;
2019/07/26 09:02:02;;;;;;;6.8;5.2;;;;;;;39;30.12988;934.9196;;;;
2019/07/26 09:05:17;;;;;;;13.8;5.3;;;;;;;38.34;31.54492;934.8829;;;;
2019/07/26 09:08:33;;;;;;;10.2;5.3;;;;;;;38.93;28.62988;934.8128;;;;
2019/07/26 09:11:56;;;;;;;9.2;5.3;;;;;;;39;28.08594;934.7846;;;;
2019/07/26 09:15:16;;;;;;;9;5.5;;;;;;;39.34;30.01855;934.7867;;;;
2019/07/26 09:18:34;;;;;;;9;5.6;;;;;;;39.1;28.85938;934.8036;;;;
2019/07/26 09:21:53;;;;;;;7.9;5.7;;;;;;;39.38;28.76758;934.7689;;;;
2019/07/26 09:25:10;;;;;;;11.9;5.7;;;;;;;39.08;29.02832;934.6581;;;;
2019/07/26 09:28:31;;;;;;;8.9;5.2;;;;;;;38.75;29.61523;934.6258;;;;
2019/07/26 09:31:47;;;;;;;8.3;5.3;;;;;;;38.54;29.50488;934.6219;;;;
2019/07/26 09:35:01;;;;;;;13.6;5.7;;;;;;;38.55;30.16211;934.6014;;;;
2019/07/26 09:38:20;;;;;;;12.5;5.6;;;;;;;37.79;32.12695;934.4761;;;;
2019/07/26 09:41:37;;;;;;;8.4;5.7;;;;;;;37.64;32.00684;934.5556;;;;
2019/07/26 09:44:53;;;;;;;11.6;6;;;;;;;37.3;31.92383;934.4972;;;;
2019/07/26 09:48:11;;;;;;;9.8;5.7;;;;;;;37.15;32.10645;934.4279;;;;
2019/07/26 09:51:29;;;;;;;10.8;5.6;;;;;;;37.2;32.94629;934.4394;;;;
2019/07/26 09:54:45;;;;;;;7.4;5.6;;;;;;;37.48;32.51758;934.3995;;;;
2019/07/26 09:58:01;;;;;;;7.7;5.7;;;;;;;37.38;32.84961;934.3842;;;;
2019/07/26 10:01:20;;;;;;;11.2;5.6;;;;;;;37.35;31.17383;934.2938;;;;
2019/07/26 10:04:44;;;;;;;8.8;6.1;;;;;;;37.24;32.29395;934.2625;;;;
2019/07/26 10:07:59;;;;;;;8.2;5.8;;;;;;;37.42;30.64551;934.2831;;;;
2019/07/26 10:11:18;;;;;;;7.2;5.9;;;;;;;37.95;29.92871;934.3038;;;;
2019/07/26 10:14:35;;;;;;;8;6;;;;;;;37.42;30.87598;934.247;;;;
2019/07/26 10:18:00;;;;;;;8.2;6.2;;;;;;;37.66;30.87988;934.2092;;;;
2019/07/26 10:21:18;;;;;;;10.1;5.8;;;;;;;37.21;31.06836;934.2197;;;;
2019/07/26 10:24:34;;;;;;;9.5;6.3;;;;;;;37.67;30.68555;934.2664;;;;
2019/07/26 10:27:51;;;;;;;10.3;5.9;;;;;;;37.82;30.16211;934.2208;;;;
2019/07/26 10:31:11;;;;;;;9.4;6.2;;;;;;;38.51;28.91895;934.0959;;;;
2019/07/26 10:34:27;;;;;;;10.1;6.3;;;;;;;38.48;28.86816;934.0492;;;;
2019/07/26 10:37:49;;;;;;;12.5;6;;;;;;;37.97;29.73535;934.0555;;;;
2019/07/26 10:41:04;;;;;;;11;6.3;;;;;;;37.53;31.25879;934.0253;;;;
2019/07/26 10:44:21;;;;;;;8.6;6.2;;;;;;;37.82;30.92676;933.9814;;;;
2019/07/26 10:47:43;;;;;;;10.4;6.1;;;;;;;38.37;30.19922;933.9389;;;;
2019/07/26 10:51:02;;;;;;;8;6.1;;;;;;;38.48;29.22168;933.8706;;;;
2019/07/26 10:54:20;;;;;;;8.4;5.9;;;;;;;39.11;29.7002;933.8784;;;;
2019/07/26 10:57:44;;;;;;;8.7;5.6;;;;;;;39.55;28.66797;933.8257;;;;
2019/07/26 11:01:03;;;;;;;10.3;6;;;;;;;39.27;28.78418;933.8968;;;;
2019/07/26 11:04:18;;;;;;;7.6;5.7;;;;;;;39.21;28.2207;933.8511;;;;
2019/07/26 11:07:35;;;;;;;9.2;5.4;;;;;;;39.81;28.17188;933.8084;;;;
2019/07/26 11:10:57;;;;;;;12.9;5.9;;;;;;;40.01;27.86719;933.8049;;;;
2019/07/26 11:14:19;;;;;;;9.3;5.8;;;;;;;39.96;27.52246;933.7311;;;;
2019/07/26 11:17:43;;;;;;;6.7;5.6;;;;;;;40.11;26.39648;933.7314;;;;
2019/07/26 11:21:08;;;;;;;6.5;5.4;;;;;;;39.65;26.37109;933.7335;;;;
2019/07/26 11:24:31;;;;;;;6.1;5.5;;;;;;;39.7;27.78711;933.7349;;;;
2019/07/26 11:27:47;;;;;;;9.7;5.9;;;;;;;39.59;28.97559;933.5865;;;;
2019/07/26 11:31:10;;;;;;;10;5.9;;;;;;;38.6;28.20801;933.4768;;;;
2019/07/26 11:34:24;;;;;;;10.4;5.7;;;;;;;38.53;29.0293;933.4651;;;;
2019/07/26 11:37:44;;;;;;;11.5;6.1;;;;;;;37.9;28.99023;933.3839;;;;
2019/07/26 11:41:08;;;;;;;11.3;6.3;;;;;;;37.73;30.39941;933.4955;;;;
2019/07/26 11:47:46;;;;;;;9.9;6.1;;;;;;;36.86;30.4873;933.3633;;;;
2019/07/26 11:51:02;;;;;;;8.7;5.8;;;;;;;36.81;30;933.2891;;;;
2019/07/26 11:54:23;;;;;;;13.4;6.1;;;;;;;36.8;30.33789;933.2375;;;;
2019/07/26 11:57:42;;;;;;;8.2;6;;;;;;;36.76;31.01367;933.2164;;;;
2019/07/26 12:01:03;;;;;;;9.6;5.9;;;;;;;37.13;31.65625;933.1821;;;;
2019/07/26 12:04:27;;;;;;;7.5;5.5;;;;;;;37.28;30.68457;933.1863;;;;
2019/07/26 12:07:43;;;;;;;11.5;5.7;;;;;;;36.91;30.92578;933.1544;;;;
2019/07/26 12:11:06;;;;;;;9;6;;;;;;;36.95;31.41406;933.0955;;;;
2019/07/26 12:14:28;;;;;;;9;5.5;;;;;;;36.87;31.89355;933.1;;;;
2019/07/26 12:17:54;;;;;;;8.1;6;;;;;;;36.88;32.0752;933.0131;;;;
2019/07/26 12:21:12;;;;;;;11.5;5.8;;;;;;;36.62;32.89258;932.9623;;;;
2019/07/26 12:24:29;;;;;;;7.4;6;;;;;;;36.13;32.66406;932.9213;;;;
2019/07/26 12:27:41;;;;;;;7.9;5.8;;;;;;;35.5;32.15918;932.8655;;;;
2019/07/26 12:31:00;;;;;;;14.1;6.1;;;;;;;34.99;34.76563;932.8495;;;;
2019/07/26 12:34:13;;;;;;;18.7;6.2;;;;;;;34.53;35.62305;932.8658;;;;
2019/07/26 12:37:32;;;;;;;9.3;6.3;;;;;;;34.1;37.46777;932.8144;;;;
2019/07/26 12:40:50;;;;;;;12.2;6.4;;;;;;;33.6;38.52148;932.7492;;;;
2019/07/26 12:43:54;;;;;;;9.3;6.3;;;;;;;33.47;38.14941;932.6348;;;;
2019/07/26 12:47:14;;;;;;;9.3;6.2;;;;;;;33.18;38.94238;932.6856;;;;
2019/07/26 12:50:29;;;;;;;11.5;6.3;;;;;;;32.86;39.77832;932.6702;;;;
2019/07/26 12:53:45;;;;;;;11.1;6.5;;;;;;;32.73;40.21191;932.729;;;;
2019/07/26 12:57:02;;;;;;;8.7;6.2;;;;;;;32.77;39.77148;932.7519;;;;
2019/07/26 13:00:22;;;;;;;8.9;6.3;;;;;;;32.72;38.09863;932.666;;;;
2019/07/26 13:04:17;;;;;;;8.7;6.4;;;;;;;32.54;38.45508;932.6772;;;;
2019/07/26 13:07:40;;;;;;;11.9;6.5;;;;;;;32.7;39.86035;932.6216;;;;
2019/07/26 13:10:55;;;;;;;7.2;6;;;;;;;32.73;41.37598;932.597;;;;
2019/07/26 13:14:15;;;;;;;10.6;6.1;;;;;;;32.53;40.08594;932.5878;;;;
2019/07/26 13:17:31;;;;;;;7.7;6.4;;;;;;;32.55;40.28027;932.5795;;;;
2019/07/26 13:20:49;;;;;;;8.6;6.1;;;;;;;32.63;40.31152;932.5803;;;;
2019/07/26 13:24:03;;;;;;;11.5;6.1;;;;;;;32.64;40.14355;932.5659;;;;
2019/07/26 13:27:20;;;;;;;10.3;6.2;;;;;;;32.6;40.25977;932.6443;;;;
2019/07/26 13:30:45;;;;;;;7;6.2;;;;;;;32.65;40.93652;932.7096;;;;
2019/07/26 13:34:09;;;;;;;12.8;6.4;;;;;;;32.56;41.03613;932.7665;;;;
2019/07/26 13:37:27;;;;;;;10.6;7.5;;;;;;;32.08;42.38379;932.7263;;;;
2019/07/26 13:40:45;;;;;;;14;7.9;;;;;;;31.52;44.31836;932.6822;;;;
2019/07/26 13:44:04;;;;;;;10.2;7.2;;;;;;;31.18;43.14941;932.617;;;;
2019/07/26 13:47:19;;;;;;;11.6;7.6;;;;;;;31.02;44.81934;932.5201;;;;
2019/07/26 13:50:34;;;;;;;13.3;7.9;;;;;;;30.73;46.6084;932.499;;;;
2019/07/26 13:53:58;;;;;;;11.7;8;;;;;;;30.41;47.97168;932.5405;;;;
2019/07/26 13:57:13;;;;;;;10.8;8.5;;;;;;;29.77;50.09863;932.6133;;;;
2019/07/26 14:00:34;;;;;;;9.3;8.3;;;;;;;29.46;51.31543;932.5934;;;;
2019/07/26 14:04:04;;;;;;;11.5;8.4;;;;;;;29.03;52.83789;932.5524;;;;
2019/07/26 14:07:22;;;;;;;11.8;8.9;;;;;;;28.96;53.37793;932.5422;;;;
2019/07/26 14:10:35;;;;;;;12.4;9.1;;;;;;;28.63;54.46875;932.4871;;;;
2019/07/26 14:14:03;;;;;;;10.5;9.2;;;;;;;28.22;55.19043;932.4763;;;;
2019/07/26 14:17:37;;;;;;;11.7;9.1;;;;;;;27.88;56.43262;932.4339;;;;
2019/07/26 14:21:01;;;;;;;10.5;9.4;;;;;;;27.69;57.42969;932.3542;;;;
2019/07/26 14:24:21;;;;;;;9.9;8.7;;;;;;;27.75;57.46094;932.3304;;;;
2019/07/26 14:27:45;;;;;;;12.3;9.5;;;;;;;27.89;57.16992;932.3016;;;;
2019/07/26 14:31:03;;;;;;;13.4;9.4;;;;;;;27.58;58.86328;932.2491;;;;
2019/07/26 14:34:24;;;;;;;11.5;10;;;;;;;27.38;60.18848;932.3629;;;;
2019/07/26 14:37:39;;;;;;;11.4;9.1;;;;;;;27.28;60.64941;932.3368;;;;
2019/07/26 14:40:53;;;;;;;14.4;10;;;;;;;27.01;61.37207;932.3218;;;;
2019/07/26 14:44:18;;;;;;;11.8;9.3;;;;;;;27.29;60.56934;932.287;;;;
2019/07/26 14:47:39;;;;;;;12.2;9.7;;;;;;;27.15;61.11914;932.2319;;;;
2019/07/26 14:50:57;;;;;;;10.1;9.1;;;;;;;26.94;62.08594;932.1633;;;;
2019/07/26 14:54:22;;;;;;;12.4;9.7;;;;;;;27.08;62.10645;932.1783;;;;
2019/07/26 14:57:37;;;;;;;13.8;10.2;;;;;;;27.18;61.64551;932.1783;;;;
2019/07/26 15:00:52;;;;;;;13;9.8;;;;;;;27.26;61.62012;932.2308;;;;
2019/07/26 15:04:09;;;;;;;10.5;9.4;;;;;;;27.39;61.04395;932.27;;;;
2019/07/26 15:07:33;;;;;;;11.8;9.5;;;;;;;26.98;61.85352;932.1384;;;;
2019/07/26 15:10:56;;;;;;;12.7;9.7;;;;;;;27.27;60.68457;932.1511;;;;
2019/07/26 15:14:12;;;;;;;15.5;10.1;;;;;;;27.47;60.55762;932.1682;;;;
2019/07/26 15:17:31;;;;;;;15.6;10.2;;;;;;;27.5;59.54102;932.0895;;;;
2019/07/26 15:20:58;;;;;;;12.8;9.4;;;;;;;27.64;59.53613;932.0519;;;;
2019/07/26 15:24:16;;;;;;;15.7;9.7;;;;;;;27.8;58.99902;932.0424;;;;
2019/07/26 15:27:38;;;;;;;19.9;10.5;;;;;;;27.69;58.94922;931.9261;;;;
2019/07/26 15:30:59;;;;;;;13.9;9.7;;;;;;;27.78;59.10352;931.8578;;;;
2019/07/26 15:34:15;;;;;;;12.2;10;;;;;;;27.91;58.96582;931.8052;;;;
2019/07/26 15:37:38;;;;;;;14;9.3;;;;;;;27.89;58.77344;931.8079;;;;
2019/07/26 15:40:59;;;;;;;11.7;9.9;;;;;;;27.34;60.2207;931.7153;;;;
2019/07/26 15:44:15;;;;;;;12.3;9.6;;;;;;;27.18;60.79199;931.6551;;;;
2019/07/26 15:47:34;;;;;;;12.6;9.8;;;;;;;27.33;60.49121;931.5989;;;;
2019/07/26 15:50:52;;;;;;;13.9;9.9;;;;;;;27.17;61.3584;931.5622;;;;
2019/07/26 15:54:12;;;;;;;19.6;10.2;;;;;;;27.23;60.82129;931.5425;;;;
2019/07/26 15:57:36;;;;;;;12.5;9.4;;;;;;;27.16;60.85938;931.625;;;;
2019/07/26 16:01:00;;;;;;;25.5;10.6;;;;;;;27.17;59.91211;931.5884;;;;
2019/07/26 16:04:23;;;;;;;11;9.4;;;;;;;27.22;59.8125;931.6445;;;;
2019/07/26 16:07:38;;;;;;;10.9;9.3;;;;;;;27.37;59.34668;931.6053;;;;
2019/07/26 16:10:53;;;;;;;13.6;9.4;;;;;;;27.56;58.12402;931.5947;;;;
2019/07/26 16:14:26;;;;;;;11.6;9.1;;;;;;;27.8;55.88867;931.4963;;;;
2019/07/26 16:17:41;;;;;;;17.7;8.5;;;;;;;28.07;51.00195;931.4592;;;;
2019/07/26 16:21:06;;;;;;;8.7;7.8;;;;;;;28.54;48.82031;931.5148;;;;
2019/07/26 16:24:37;;;;;;;11.9;7.6;;;;;;;28.74;47.08105;931.4758;;;;
2019/07/26 16:28:03;;;;;;;12.3;8.4;;;;;;;28.85;55.01855;931.5958;;;;
2019/07/26 16:31:20;;;;;;;35.9;10.4;;;;;;;28.88;51.01172;931.5776;;;;
2019/07/26 16:34:41;;;;;;;81.9;11.2;;;;;;;28.96;45.06934;931.5284;;;;
2019/07/26 16:37:57;;;;;;;9.2;6.8;;;;;;;28.92;44.51758;931.5785;;;;
2019/07/26 16:41:20;;;;;;;75.8;9.7;;;;;;;28.89;43.12207;931.5447;;;;
2019/07/26 16:44:41;;;;;;;9.9;6.1;;;;;;;28.79;43.37402;931.4453;;;;
2019/07/26 16:48:04;;;;;;;8.3;6.6;;;;;;;28.78;42.86133;931.4675;;;;
2019/07/26 16:51:20;;;;;;;8.5;6.1;;;;;;;28.99;41.95215;931.4757;;;;
2019/07/26 16:54:45;;;;;;;7.4;5;;;;;;;28.97;39.48633;931.291;;;;
2019/07/26 16:58:07;;;;;;;8.1;4.9;;;;;;;28.89;39.39746;931.2955;;;;
2019/07/26 17:01:26;;;;;;;7;4.6;;;;;;;28.66;39.31641;931.3243;;;;
2019/07/26 17:04:44;;;;;;;5.5;4.4;;;;;;;28.85;38.86914;931.285;;;;
2019/07/26 17:08:05;;;;;;;6.7;4.2;;;;;;;28.54;38.14063;931.3458;;;;
2019/07/26 17:11:22;;;;;;;19;4.8;;;;;;;28.69;37.66602;931.4053;;;;
2019/07/26 17:14:40;;;;;;;4.7;3.5;;;;;;;28.44;37.33496;931.3189;;;;
2019/07/26 17:17:55;;;;;;;4.8;3.5;;;;;;;28.49;36.34082;931.3541;;;;
2019/07/26 17:21:14;;;;;;;6.3;3.5;;;;;;;28.6;36.71777;931.3218;;;;
2019/07/26 17:24:29;;;;;;;5.9;3.1;;;;;;;28.47;35.85156;931.3043;;;;
2019/07/26 17:27:48;;;;;;;4.9;3.1;;;;;;;28.36;35.43945;931.3244;;;;
2019/07/26 17:31:04;;;;;;;3.5;3.2;;;;;;;28.39;37.40234;931.298;;;;
2019/07/26 17:34:23;;;;;;;4.4;3.4;;;;;;;28.07;36.48535;931.2273;;;;
2019/07/26 17:37:40;;;;;;;5.9;2.9;;;;;;;28.26;35.88184;931.3605;;;;
2019/07/26 17:40:57;;;;;;;4.1;2.9;;;;;;;28.03;36.36328;931.3466;;;;
2019/07/26 17:44:17;;;;;;;4.7;3.3;;;;;;;27.94;36.91406;931.2971;;;;
2019/07/26 17:47:33;;;;;;;4.5;3.2;;;;;;;27.92;37.3877;931.2656;;;;
2019/07/26 17:50:55;;;;;;;4.6;3;;;;;;;27.97;36.70215;931.2406;;;;
2019/07/26 17:54:11;;;;;;;4.6;2.8;;;;;;;27.92;36.2002;931.1871;;;;
2019/07/26 17:57:30;;;;;;;2.9;2.6;;;;;;;27.96;34.81348;931.1672;;;;
2019/07/26 18:00:47;;;;;;;3.6;2.7;;;;;;;28.02;36.97949;931.2181;;;;
2019/07/26 18:04:06;;;;;;;5.2;3;;;;;;;27.92;37.25684;931.2841;;;;
2019/07/26 18:07:25;;;;;;;3;2.7;;;;;;;27.77;37.43457;931.3145;;;;
2019/07/26 18:10:57;;;;;;;3.8;2.9;;;;;;;27.58;37.83301;931.3513;;;;
2019/07/26 18:14:12;;;;;;;5.5;2.7;;;;;;;27.65;37.48438;931.2914;;;;
2019/07/26 18:17:28;;;;;;;3.1;2.5;;;;;;;27.66;38.04297;931.3109;;;;
2019/07/26 18:20:51;;;;;;;5.5;2.9;;;;;;;27.77;38.22949;931.3145;;;;
2019/07/26 18:24:09;;;;;;;4.5;3;;;;;;;27.68;38.11426;931.3869;;;;
2019/07/26 18:27:34;;;;;;;4.8;3;;;;;;;27.6;38.54785;931.3656;;;;
2019/07/26 18:30:49;;;;;;;4.6;3.1;;;;;;;27.57;39.96973;931.4534;;;;
2019/07/26 18:34:05;;;;;;;4.7;3.3;;;;;;;27.55;40.57227;931.426;;;;
2019/07/26 18:37:22;;;;;;;3.3;2.9;;;;;;;27.11;39.8457;931.4276;;;;
2019/07/26 18:40:39;;;;;;;3.3;2.9;;;;;;;27.13;41.20996;931.4328;;;;
2019/07/26 18:43:57;;;;;;;5.3;3.2;;;;;;;27.02;40.2168;931.3685;;;;
2019/07/26 18:47:15;;;;;;;6.4;3.3;;;;;;;27.17;40.00391;931.3346;;;;
2019/07/26 18:50:29;;;;;;;4.6;3.1;;;;;;;27.14;40.5;931.4877;;;;
2019/07/26 18:53:48;;;;;;;4.9;3.7;;;;;;;27.13;41.65039;931.4498;;;;
2019/07/26 18:57:07;;;;;;;7.4;4.2;;;;;;;27.07;41.58496;931.4211;;;;
2019/07/26 19:00:25;;;;;;;5.6;3.3;;;;;;;26.94;40.94434;931.3657;;;;
2019/07/26 19:04:05;;;;;;;4.5;2.9;;;;;;;26.88;42.51465;931.3501;;;;
2019/07/26 19:07:20;;;;;;;4;3;;;;;;;26.9;43.07324;931.303;;;;
2019/07/26 19:10:38;;;;;;;4.6;3.3;;;;;;;26.59;42.27344;931.2463;;;;
2019/07/26 19:14:01;;;;;;;5.9;3.4;;;;;;;26.57;43.03027;931.2227;;;;
2019/07/26 19:17:21;;;;;;;5.2;3.1;;;;;;;26.59;45.19922;931.1495;;;;
2019/07/26 19:20:36;;;;;;;5.6;4.5;;;;;;;26.41;45.98535;931.1674;;;;
2019/07/26 19:23:56;;;;;;;6;4.5;;;;;;;26.14;46.41992;931.1859;;;;